sensor_id;sensor_type;location;lat;lon;timestamp;P1;durP1;ratioP1;P2;durP2;ratioP2
37891;SDS011;45797;47.466;9.486;2022-11-11T00:02:17;6.93;;;3.00;;
37891;SDS011;45797;47.466;9.486;2022-11-11T00:13:03;7.05;;;3.25;;
37891;SDS011;45797;47.466;9.486;2022-11-11T00:24:32;8.63;;;3.20;;
37891;SDS011;45797;47.466;9.486;2022-11-11T00:30:10;6.72;;;3.53;;
37891;SDS011;45797;47.466;9.486;2022-11-11T00:35:31;10.90;;;4.40;;
37891;SDS011;45797;47.466;9.486;2022-11-11T00:41:20;10.52;;;4.10;;
37891;SDS011;45797;47.466;9.486;2022-11-11T00:46:43;6.82;;;3.45;;
37891;SDS011;45797;47.466;9.486;2022-11-11T00:52:21;8.07;;;3.92;;
37891;SDS011;45797;47.466;9.486;2022-11-11T00:57:53;14.65;;;4.82;;
37891;SDS011;45797;47.466;9.486;2022-11-11T01:03:19;9.02;;;3.20;;
37891;SDS011;45797;47.466;9.486;2022-11-11T01:08:40;7.55;;;3.35;;
37891;SDS011;45797;47.466;9.486;2022-11-11T01:14:10;9.48;;;4.32;;
37891;SDS011;45797;47.466;9.486;2022-11-11T01:19:29;9.88;;;3.95;;
37891;SDS011;45797;47.466;9.486;2022-11-11T01:24:50;8.07;;;3.88;;
37891;SDS011;45797;47.466;9.486;2022-11-11T01:30:10;8.77;;;3.40;;
37891;SDS011;45797;47.466;9.486;2022-11-11T01:35:36;12.95;;;4.68;;
37891;SDS011;45797;47.466;9.486;2022-11-11T01:41:07;9.82;;;4.63;;
37891;SDS011;45797;47.466;9.486;2022-11-11T01:46:55;8.13;;;3.55;;
37891;SDS011;45797;47.466;9.486;2022-11-11T01:52:23;11.75;;;3.92;;
37891;SDS011;45797;47.466;9.486;2022-11-11T02:03:25;13.77;;;5.07;;
37891;SDS011;45797;47.466;9.486;2022-11-11T02:08:47;8.85;;;3.60;;
37891;SDS011;45797;47.466;9.486;2022-11-11T02:14:07;8.75;;;3.80;;
37891;SDS011;45797;47.466;9.486;2022-11-11T02:19:55;9.10;;;4.03;;
37891;SDS011;45797;47.466;9.486;2022-11-11T02:25:18;8.68;;;3.30;;
37891;SDS011;45797;47.466;9.486;2022-11-11T02:36:03;8.60;;;4.13;;
37891;SDS011;45797;47.466;9.486;2022-11-11T02:41:23;9.07;;;3.60;;
37891;SDS011;45797;47.466;9.486;2022-11-11T02:47:16;10.45;;;3.97;;
37891;SDS011;45797;47.466;9.486;2022-11-11T02:52:36;9.20;;;4.35;;
37891;SDS011;45797;47.466;9.486;2022-11-11T02:57:55;11.13;;;4.28;;
37891;SDS011;45797;47.466;9.486;2022-11-11T03:03:17;8.48;;;3.70;;
37891;SDS011;45797;47.466;9.486;2022-11-11T03:08:35;7.18;;;3.45;;
37891;SDS011;45797;47.466;9.486;2022-11-11T03:14:03;7.75;;;3.50;;
37891;SDS011;45797;47.466;9.486;2022-11-11T03:19:30;6.45;;;3.33;;
37891;SDS011;45797;47.466;9.486;2022-11-11T03:24:50;7.22;;;3.20;;
37891;SDS011;45797;47.466;9.486;2022-11-11T03:30:38;6.03;;;3.00;;
37891;SDS011;45797;47.466;9.486;2022-11-11T03:35:59;5.93;;;2.70;;
37891;SDS011;45797;47.466;9.486;2022-11-11T03:41:18;6.22;;;2.85;;
37891;SDS011;45797;47.466;9.486;2022-11-11T03:46:38;5.45;;;2.83;;
37891;SDS011;45797;47.466;9.486;2022-11-11T03:51:57;7.05;;;3.35;;
37891;SDS011;45797;47.466;9.486;2022-11-11T04:14:47;9.77;;;3.97;;
37891;SDS011;45797;47.466;9.486;2022-11-11T04:26:20;8.38;;;3.55;;
37891;SDS011;45797;47.466;9.486;2022-11-11T04:37:50;10.43;;;4.25;;
37891;SDS011;45797;47.466;9.486;2022-11-11T04:43:09;8.32;;;3.83;;
37891;SDS011;45797;47.466;9.486;2022-11-11T04:48:35;8.88;;;3.53;;
37891;SDS011;45797;47.466;9.486;2022-11-11T04:54:00;10.80;;;4.30;;
37891;SDS011;45797;47.466;9.486;2022-11-11T04:59:19;7.97;;;3.47;;
37891;SDS011;45797;47.466;9.486;2022-11-11T05:04:38;8.10;;;3.40;;
37891;SDS011;45797;47.466;9.486;2022-11-11T05:15:35;8.15;;;3.42;;
37891;SDS011;45797;47.466;9.486;2022-11-11T05:21:31;8.13;;;3.10;;
37891;SDS011;45797;47.466;9.486;2022-11-11T05:32:21;7.80;;;2.95;;
37891;SDS011;45797;47.466;9.486;2022-11-11T05:37:43;7.38;;;2.80;;
37891;SDS011;45797;47.466;9.486;2022-11-11T05:43:22;5.90;;;2.60;;
37891;SDS011;45797;47.466;9.486;2022-11-11T05:48:49;7.38;;;2.58;;
37891;SDS011;45797;47.466;9.486;2022-11-11T05:54:27;5.05;;;2.30;;
37891;SDS011;45797;47.466;9.486;2022-11-11T05:59:46;7.25;;;2.47;;
37891;SDS011;45797;47.466;9.486;2022-11-11T06:05:21;4.53;;;2.17;;
37891;SDS011;45797;47.466;9.486;2022-11-11T06:10:39;4.47;;;2.10;;
37891;SDS011;45797;47.466;9.486;2022-11-11T06:21:38;5.53;;;2.13;;
37891;SDS011;45797;47.466;9.486;2022-11-11T06:27:15;6.72;;;2.20;;
37891;SDS011;45797;47.466;9.486;2022-11-11T06:32:35;6.07;;;2.45;;
37891;SDS011;45797;47.466;9.486;2022-11-11T06:37:55;3.75;;;1.60;;
37891;SDS011;45797;47.466;9.486;2022-11-11T06:43:15;7.03;;;2.75;;
37891;SDS011;45797;47.466;9.486;2022-11-11T06:48:36;7.13;;;2.38;;
37891;SDS011;45797;47.466;9.486;2022-11-11T06:54:01;6.28;;;2.50;;
37891;SDS011;45797;47.466;9.486;2022-11-11T06:59:19;8.85;;;2.55;;
37891;SDS011;45797;47.466;9.486;2022-11-11T07:04:39;6.22;;;2.95;;
37891;SDS011;45797;47.466;9.486;2022-11-11T07:09:58;7.50;;;2.50;;
37891;SDS011;45797;47.466;9.486;2022-11-11T07:15:18;4.43;;;2.10;;
37891;SDS011;45797;47.466;9.486;2022-11-11T07:20:36;7.25;;;2.40;;
37891;SDS011;45797;47.466;9.486;2022-11-11T07:26:06;4.93;;;1.98;;
37891;SDS011;45797;47.466;9.486;2022-11-11T07:31:25;6.22;;;2.03;;
37891;SDS011;45797;47.466;9.486;2022-11-11T07:36:46;6.57;;;2.72;;
37891;SDS011;45797;47.466;9.486;2022-11-11T07:42:04;5.57;;;2.20;;
37891;SDS011;45797;47.466;9.486;2022-11-11T07:47:25;7.50;;;2.30;;
37891;SDS011;45797;47.466;9.486;2022-11-11T07:52:48;7.68;;;2.78;;
37891;SDS011;45797;47.466;9.486;2022-11-11T07:58:08;7.22;;;2.72;;
37891;SDS011;45797;47.466;9.486;2022-11-11T08:09:18;6.97;;;2.72;;
37891;SDS011;45797;47.466;9.486;2022-11-11T08:14:36;10.32;;;2.65;;
37891;SDS011;45797;47.466;9.486;2022-11-11T08:25:27;8.38;;;2.38;;
37891;SDS011;45797;47.466;9.486;2022-11-11T08:30:54;7.97;;;2.80;;
37891;SDS011;45797;47.466;9.486;2022-11-11T08:36:15;7.57;;;2.78;;
37891;SDS011;45797;47.466;9.486;2022-11-11T08:41:34;6.53;;;2.58;;
37891;SDS011;45797;47.466;9.486;2022-11-11T08:46:53;6.63;;;2.55;;
37891;SDS011;45797;47.466;9.486;2022-11-11T08:52:20;7.03;;;2.67;;
37891;SDS011;45797;47.466;9.486;2022-11-11T08:57:40;6.63;;;2.60;;
37891;SDS011;45797;47.466;9.486;2022-11-11T09:03:01;6.75;;;2.35;;
37891;SDS011;45797;47.466;9.486;2022-11-11T09:08:22;5.35;;;2.40;;
37891;SDS011;45797;47.466;9.486;2022-11-11T09:13:43;8.82;;;3.30;;
37891;SDS011;45797;47.466;9.486;2022-11-11T09:19:05;10.05;;;3.42;;
37891;SDS011;45797;47.466;9.486;2022-11-11T09:24:24;8.32;;;3.03;;
37891;SDS011;45797;47.466;9.486;2022-11-11T09:29:44;8.32;;;3.30;;
37891;SDS011;45797;47.466;9.486;2022-11-11T09:35:03;7.32;;;2.65;;
37891;SDS011;45797;47.466;9.486;2022-11-11T09:40:23;5.85;;;2.55;;
37891;SDS011;45797;47.466;9.486;2022-11-11T09:56:49;10.02;;;3.20;;
37891;SDS011;45797;47.466;9.486;2022-11-11T10:08:03;7.22;;;2.97;;
37891;SDS011;45797;47.466;9.486;2022-11-11T10:13:33;9.75;;;3.65;;
37891;SDS011;45797;47.466;9.486;2022-11-11T10:24:36;9.93;;;3.50;;
37891;SDS011;45797;47.466;9.486;2022-11-11T10:52:59;6.70;;;2.90;;
37891;SDS011;45797;47.466;9.486;2022-11-11T11:15:23;7.85;;;3.22;;
37891;SDS011;45797;47.466;9.486;2022-11-11T11:21:18;7.85;;;3.10;;
37891;SDS011;45797;47.466;9.486;2022-11-11T11:27:13;7.10;;;3.08;;
37891;SDS011;45797;47.466;9.486;2022-11-11T11:32:21;8.85;;;2.83;;
37891;SDS011;45797;47.466;9.486;2022-11-11T11:37:49;6.45;;;2.60;;
37891;SDS011;45797;47.466;9.486;2022-11-11T11:49:15;7.65;;;3.40;;
37891;SDS011;45797;47.466;9.486;2022-11-11T11:55:05;6.82;;;3.10;;
37891;SDS011;45797;47.466;9.486;2022-11-11T12:06:02;5.72;;;2.80;;
37891;SDS011;45797;47.466;9.486;2022-11-11T12:16:46;7.45;;;3.28;;
37891;SDS011;45797;47.466;9.486;2022-11-11T12:28:48;7.70;;;2.70;;
37891;SDS011;45797;47.466;9.486;2022-11-11T12:39:35;12.95;;;3.55;;
37891;SDS011;45797;47.466;9.486;2022-11-11T12:45:16;6.28;;;3.17;;
37891;SDS011;45797;47.466;9.486;2022-11-11T12:56:32;8.68;;;3.50;;
37891;SDS011;45797;47.466;9.486;2022-11-11T13:13:43;8.23;;;3.58;;
37891;SDS011;45797;47.466;9.486;2022-11-11T13:19:30;12.68;;;3.40;;
37891;SDS011;45797;47.466;9.486;2022-11-11T13:24:54;8.55;;;3.75;;
37891;SDS011;45797;47.466;9.486;2022-11-11T13:36:15;7.93;;;3.72;;
37891;SDS011;45797;47.466;9.486;2022-11-11T13:41:39;9.23;;;4.18;;
37891;SDS011;45797;47.466;9.486;2022-11-11T13:47:01;7.68;;;3.20;;
37891;SDS011;45797;47.466;9.486;2022-11-11T13:52:25;7.78;;;3.78;;
37891;SDS011;45797;47.466;9.486;2022-11-11T13:57:57;10.32;;;4.00;;
37891;SDS011;45797;47.466;9.486;2022-11-11T14:19:49;10.07;;;3.85;;
37891;SDS011;45797;47.466;9.486;2022-11-11T14:25:08;9.52;;;3.88;;
37891;SDS011;45797;47.466;9.486;2022-11-11T14:30:38;11.00;;;4.72;;
37891;SDS011;45797;47.466;9.486;2022-11-11T14:41:51;10.90;;;4.25;;
37891;SDS011;45797;47.466;9.486;2022-11-11T14:52:56;8.80;;;3.95;;
37891;SDS011;45797;47.466;9.486;2022-11-11T14:58:32;8.80;;;3.72;;
37891;SDS011;45797;47.466;9.486;2022-11-11T15:03:54;9.82;;;4.63;;
37891;SDS011;45797;47.466;9.486;2022-11-11T15:21:19;12.55;;;4.32;;
37891;SDS011;45797;47.466;9.486;2022-11-11T15:33:00;9.05;;;3.92;;
37891;SDS011;45797;47.466;9.486;2022-11-11T15:38:29;11.88;;;3.92;;
37891;SDS011;45797;47.466;9.486;2022-11-11T15:43:48;9.50;;;4.20;;
37891;SDS011;45797;47.466;9.486;2022-11-11T15:49:14;9.75;;;3.95;;
37891;SDS011;45797;47.466;9.486;2022-11-11T15:54:57;8.88;;;3.83;;
37891;SDS011;45797;47.466;9.486;2022-11-11T16:05:42;14.68;;;4.07;;
37891;SDS011;45797;47.466;9.486;2022-11-11T16:11:03;9.60;;;3.63;;
37891;SDS011;45797;47.466;9.486;2022-11-11T16:16:23;7.80;;;3.70;;
37891;SDS011;45797;47.466;9.486;2022-11-11T16:21:56;10.38;;;4.25;;
37891;SDS011;45797;47.466;9.486;2022-11-11T16:32:54;10.10;;;4.13;;
37891;SDS011;45797;47.466;9.486;2022-11-11T16:38:37;8.57;;;3.72;;
37891;SDS011;45797;47.466;9.486;2022-11-11T16:43:58;8.27;;;3.70;;
37891;SDS011;45797;47.466;9.486;2022-11-11T16:49:28;7.25;;;3.75;;
37891;SDS011;45797;47.466;9.486;2022-11-11T16:54:51;9.95;;;4.10;;
37891;SDS011;45797;47.466;9.486;2022-11-11T17:00:16;8.43;;;4.10;;
37891;SDS011;45797;47.466;9.486;2022-11-11T17:17:04;8.15;;;3.63;;
37891;SDS011;45797;47.466;9.486;2022-11-11T17:28:04;9.85;;;4.55;;
37891;SDS011;45797;47.466;9.486;2022-11-11T17:33:28;11.10;;;5.35;;
37891;SDS011;45797;47.466;9.486;2022-11-11T17:38:49;14.60;;;5.53;;
37891;SDS011;45797;47.466;9.486;2022-11-11T17:44:08;12.13;;;4.75;;
37891;SDS011;45797;47.466;9.486;2022-11-11T17:49:28;9.80;;;4.55;;
37891;SDS011;45797;47.466;9.486;2022-11-11T17:54:57;9.50;;;4.57;;
37891;SDS011;45797;47.466;9.486;2022-11-11T18:00:17;11.40;;;5.38;;
37891;SDS011;45797;47.466;9.486;2022-11-11T18:05:35;13.27;;;5.00;;
37891;SDS011;45797;47.466;9.486;2022-11-11T18:11:02;12.27;;;5.15;;
37891;SDS011;45797;47.466;9.486;2022-11-11T18:16:24;11.65;;;4.40;;
37891;SDS011;45797;47.466;9.486;2022-11-11T18:21:43;9.93;;;4.70;;
37891;SDS011;45797;47.466;9.486;2022-11-11T18:27:03;14.00;;;5.55;;
37891;SDS011;45797;47.466;9.486;2022-11-11T18:32:24;11.32;;;4.78;;
37891;SDS011;45797;47.466;9.486;2022-11-11T18:37:44;10.95;;;4.57;;
37891;SDS011;45797;47.466;9.486;2022-11-11T18:43:04;12.23;;;5.28;;
37891;SDS011;45797;47.466;9.486;2022-11-11T18:48:24;15.27;;;5.60;;
37891;SDS011;45797;47.466;9.486;2022-11-11T18:53:51;13.25;;;5.43;;
37891;SDS011;45797;47.466;9.486;2022-11-11T18:59:12;15.10;;;5.63;;
37891;SDS011;45797;47.466;9.486;2022-11-11T19:04:39;10.20;;;5.28;;
37891;SDS011;45797;47.466;9.486;2022-11-11T19:09:59;9.18;;;4.57;;
37891;SDS011;45797;47.466;9.486;2022-11-11T19:15:18;12.38;;;4.75;;
37891;SDS011;45797;47.466;9.486;2022-11-11T19:20:46;16.13;;;5.35;;
37891;SDS011;45797;47.466;9.486;2022-11-11T19:26:06;13.68;;;5.30;;
37891;SDS011;45797;47.466;9.486;2022-11-11T19:31:36;12.48;;;5.13;;
37891;SDS011;45797;47.466;9.486;2022-11-11T19:42:18;11.48;;;5.05;;
37891;SDS011;45797;47.466;9.486;2022-11-11T19:47:39;11.98;;;4.85;;
37891;SDS011;45797;47.466;9.486;2022-11-11T19:52:57;9.18;;;4.60;;
37891;SDS011;45797;47.466;9.486;2022-11-11T19:58:16;14.07;;;5.18;;
37891;SDS011;45797;47.466;9.486;2022-11-11T20:03:46;12.10;;;5.30;;
37891;SDS011;45797;47.466;9.486;2022-11-11T20:09:07;15.45;;;5.38;;
37891;SDS011;45797;47.466;9.486;2022-11-11T20:14:26;13.73;;;5.53;;
37891;SDS011;45797;47.466;9.486;2022-11-11T20:19:45;12.45;;;5.32;;
37891;SDS011;45797;47.466;9.486;2022-11-11T20:25:03;12.10;;;4.90;;
37891;SDS011;45797;47.466;9.486;2022-11-11T20:30:24;13.50;;;5.72;;
37891;SDS011;45797;47.466;9.486;2022-11-11T20:35:43;11.45;;;4.97;;
37891;SDS011;45797;47.466;9.486;2022-11-11T20:41:12;12.95;;;5.47;;
37891;SDS011;45797;47.466;9.486;2022-11-11T20:46:35;14.20;;;5.72;;
37891;SDS011;45797;47.466;9.486;2022-11-11T20:51:53;12.48;;;5.57;;
37891;SDS011;45797;47.466;9.486;2022-11-11T20:57:13;14.50;;;5.70;;
37891;SDS011;45797;47.466;9.486;2022-11-11T21:02:39;10.35;;;4.68;;
37891;SDS011;45797;47.466;9.486;2022-11-11T21:08:00;13.60;;;5.85;;
37891;SDS011;45797;47.466;9.486;2022-11-11T21:13:19;13.05;;;5.25;;
37891;SDS011;45797;47.466;9.486;2022-11-11T21:18:48;11.77;;;5.22;;
37891;SDS011;45797;47.466;9.486;2022-11-11T21:24:08;12.63;;;5.05;;
37891;SDS011;45797;47.466;9.486;2022-11-11T21:29:27;16.55;;;6.60;;
37891;SDS011;45797;47.466;9.486;2022-11-11T21:34:46;12.23;;;5.43;;
37891;SDS011;45797;47.466;9.486;2022-11-11T21:40:15;13.10;;;5.45;;
37891;SDS011;45797;47.466;9.486;2022-11-11T21:45:36;14.23;;;5.45;;
37891;SDS011;45797;47.466;9.486;2022-11-11T21:51:12;12.55;;;5.28;;
37891;SDS011;45797;47.466;9.486;2022-11-11T21:56:49;14.82;;;4.93;;
37891;SDS011;45797;47.466;9.486;2022-11-11T22:02:08;9.82;;;4.85;;
37891;SDS011;45797;47.466;9.486;2022-11-11T22:07:36;13.32;;;5.70;;
37891;SDS011;45797;47.466;9.486;2022-11-11T22:12:58;11.27;;;5.13;;
37891;SDS011;45797;47.466;9.486;2022-11-11T22:18:18;12.85;;;4.60;;
37891;SDS011;45797;47.466;9.486;2022-11-11T22:23:38;12.90;;;5.40;;
37891;SDS011;45797;47.466;9.486;2022-11-11T22:28:57;11.93;;;5.53;;
37891;SDS011;45797;47.466;9.486;2022-11-11T22:39:48;11.50;;;5.30;;
37891;SDS011;45797;47.466;9.486;2022-11-11T22:45:07;11.70;;;4.82;;
37891;SDS011;45797;47.466;9.486;2022-11-11T22:50:27;10.25;;;4.72;;
37891;SDS011;45797;47.466;9.486;2022-11-11T22:55:48;13.35;;;5.97;;
37891;SDS011;45797;47.466;9.486;2022-11-11T23:01:09;12.00;;;5.32;;
37891;SDS011;45797;47.466;9.486;2022-11-11T23:06:31;9.93;;;4.65;;
37891;SDS011;45797;47.466;9.486;2022-11-11T23:11:57;11.07;;;4.93;;
37891;SDS011;45797;47.466;9.486;2022-11-11T23:17:16;11.98;;;5.30;;
37891;SDS011;45797;47.466;9.486;2022-11-11T23:22:34;14.70;;;5.88;;
37891;SDS011;45797;47.466;9.486;2022-11-11T23:27:53;15.35;;;5.88;;
37891;SDS011;45797;47.466;9.486;2022-11-11T23:33:12;13.32;;;5.78;;
37891;SDS011;45797;47.466;9.486;2022-11-11T23:38:31;19.17;;;6.00;;
37891;SDS011;45797;47.466;9.486;2022-11-11T23:43:52;12.20;;;5.28;;
37891;SDS011;45797;47.466;9.486;2022-11-11T23:49:11;12.88;;;5.30;;
37891;SDS011;45797;47.466;9.486;2022-11-11T23:54:32;13.35;;;5.57;;
37891;SDS011;45797;47.466;9.486;2022-11-11T23:59:53;13.43;;;5.30;;
